Main page
METAR-TAF:

METAR-TAF

Airports :

Barksdale Air Force Base

Bossier City, Louisiana, United States

latitude: 32-30N, longitude: 093-40W, elevation: 167 ft

Current weather observation

The report was made 41 minutes ago, at 12:55 UTC
Wind 3 mph from the West/Southwest
Temperature 82°F
Humidity 74%
Pressure 30.08 in. Hg
Visibility: 10 miles
Clear sky

METAR: KBAD 221255Z AUTO 24003KT 10SM CLR 28/23 A3008 RMK AO2 SLP188 T02820233

Time: 08:36 (13:36 UTC)

Forecast

The report was made 1 hour and 46 minutes ago, at 11:50 UTC
Forecast valid from 22 at 12 UTC to 23 at 18 UTC
Wind 7 mph from the South/Southeast
Visibility 6.2 miles or more
Clear sky
Becoming
from 22 at 17 UTC to 22 at 18 UTC
Wind 7 mph from the South/Southeast
Visibility: 7546 ft
Few clouds at a height of 5000 ft
Scattered clouds at a height of 20000 ft

TAF: KBAD 221150Z 2212/2318 15006KT 9999 SKC QNH3003INS BECMG 2217/2218 18009KT 9999 FEW050 SCT200 QNH2996INS WND 15006KT AFT 2300 TX35/2221Z TN23/2312Z

Weather observations and forecasts of more than 4000 airports (METAR and TAF reports).

The available stations are represented by yellow and red dots on the map.

Hover mouse over dot to see the name of the station.

Then click to see weather observations and forecasts.

To change the map : click on the green buttons with a black cross to zoom in, on the green button with a dash to zoom out, or on the green arrows for adjacent maps.


METAR-TAF: